sensor_id;sensor_type;location;lat;lon;timestamp;temperature;humidity
3994;DHT22;2011;48.238;13.948;2023-02-28T00:01:26;0.20;98.20
3994;DHT22;2011;48.238;13.948;2023-02-28T00:03:53;0.20;98.10
3994;DHT22;2011;48.238;13.948;2023-02-28T00:06:20;0.20;98.20
3994;DHT22;2011;48.238;13.948;2023-02-28T00:08:47;0.10;98.10
3994;DHT22;2011;48.238;13.948;2023-02-28T00:11:16;0.10;98.20
3994;DHT22;2011;48.238;13.948;2023-02-28T00:13:46;0.10;98.20
3994;DHT22;2011;48.238;13.948;2023-02-28T00:16:14;0.10;98.30
3994;DHT22;2011;48.238;13.948;2023-02-28T00:18:41;0.10;98.40
3994;DHT22;2011;48.238;13.948;2023-02-28T00:21:09;0.00;98.40
3994;DHT22;2011;48.238;13.948;2023-02-28T00:23:36;0.10;98.60
3994;DHT22;2011;48.238;13.948;2023-02-28T00:26:04;0.10;98.70
3994;DHT22;2011;48.238;13.948;2023-02-28T00:28:32;0.10;98.70
3994;DHT22;2011;48.238;13.948;2023-02-28T00:30:59;0.10;98.60
3994;DHT22;2011;48.238;13.948;2023-02-28T00:33:26;0.10;98.50
3994;DHT22;2011;48.238;13.948;2023-02-28T00:36:01;0.10;98.50
3994;DHT22;2011;48.238;13.948;2023-02-28T00:38:29;0.10;98.40
3994;DHT22;2011;48.238;13.948;2023-02-28T00:40:56;0.10;98.40
3994;DHT22;2011;48.238;13.948;2023-02-28T00:43:24;0.00;98.40
3994;DHT22;2011;48.238;13.948;2023-02-28T00:45:52;0.00;98.30
3994;DHT22;2011;48.238;13.948;2023-02-28T00:48:19;0.00;98.40
3994;DHT22;2011;48.238;13.948;2023-02-28T00:50:48;0.00;98.40
3994;DHT22;2011;48.238;13.948;2023-02-28T00:53:15;0.00;98.30
3994;DHT22;2011;48.238;13.948;2023-02-28T00:55:42;-0.10;98.20
3994;DHT22;2011;48.238;13.948;2023-02-28T00:58:09;0.00;98.30
3994;DHT22;2011;48.238;13.948;2023-02-28T01:00:36;-0.10;98.10
3994;DHT22;2011;48.238;13.948;2023-02-28T01:03:05;-0.10;98.20
3994;DHT22;2011;48.238;13.948;2023-02-28T01:05:31;-0.10;98.10
3994;DHT22;2011;48.238;13.948;2023-02-28T01:07:58;-0.10;98.10
3994;DHT22;2011;48.238;13.948;2023-02-28T01:10:25;-0.10;98.20
3994;DHT22;2011;48.238;13.948;2023-02-28T01:12:56;-0.20;98.30
3994;DHT22;2011;48.238;13.948;2023-02-28T01:15:24;-0.20;98.30
3994;DHT22;2011;48.238;13.948;2023-02-28T01:17:50;-0.20;98.40
3994;DHT22;2011;48.238;13.948;2023-02-28T01:20:19;-0.20;98.30
3994;DHT22;2011;48.238;13.948;2023-02-28T01:22:46;-0.20;98.40
3994;DHT22;2011;48.238;13.948;2023-02-28T01:25:13;-0.20;98.30
3994;DHT22;2011;48.238;13.948;2023-02-28T01:27:40;-0.20;98.40
3994;DHT22;2011;48.238;13.948;2023-02-28T01:30:08;-0.20;98.40
3994;DHT22;2011;48.238;13.948;2023-02-28T01:32:35;-0.30;98.40
3994;DHT22;2011;48.238;13.948;2023-02-28T01:35:02;-0.30;98.40
3994;DHT22;2011;48.238;13.948;2023-02-28T01:37:31;-0.30;98.60
3994;DHT22;2011;48.238;13.948;2023-02-28T01:39:57;-0.30;98.60
3994;DHT22;2011;48.238;13.948;2023-02-28T01:42:24;-0.30;98.60
3994;DHT22;2011;48.238;13.948;2023-02-28T01:45:02;-0.30;98.40
3994;DHT22;2011;48.238;13.948;2023-02-28T01:47:31;-0.40;98.60
3994;DHT22;2011;48.238;13.948;2023-02-28T01:50:01;-0.40;98.60
3994;DHT22;2011;48.238;13.948;2023-02-28T01:52:29;-0.40;98.70
3994;DHT22;2011;48.238;13.948;2023-02-28T01:54:59;-0.40;98.70
3994;DHT22;2011;48.238;13.948;2023-02-28T01:57:30;-0.40;98.90
3994;DHT22;2011;48.238;13.948;2023-02-28T02:00:06;-0.40;98.70
3994;DHT22;2011;48.238;13.948;2023-02-28T02:02:36;-0.40;98.80
3994;DHT22;2011;48.238;13.948;2023-02-28T02:05:05;-0.40;98.90
3994;DHT22;2011;48.238;13.948;2023-02-28T02:07:36;-0.40;98.90
3994;DHT22;2011;48.238;13.948;2023-02-28T02:10:10;-0.40;98.80
3994;DHT22;2011;48.238;13.948;2023-02-28T02:13:04;-0.40;98.90
3994;DHT22;2011;48.238;13.948;2023-02-28T02:15:34;-0.40;98.90
3994;DHT22;2011;48.238;13.948;2023-02-28T02:18:08;-0.50;98.70
3994;DHT22;2011;48.238;13.948;2023-02-28T02:24:29;-0.40;98.90
3994;DHT22;2011;48.238;13.948;2023-02-28T02:27:19;-0.40;99.10
3994;DHT22;2011;48.238;13.948;2023-02-28T02:35:39;-0.50;98.90
3994;DHT22;2011;48.238;13.948;2023-02-28T02:38:12;-0.50;98.90
3994;DHT22;2011;48.238;13.948;2023-02-28T02:40:46;-0.50;98.80
3994;DHT22;2011;48.238;13.948;2023-02-28T02:43:19;-0.50;98.90
3994;DHT22;2011;48.238;13.948;2023-02-28T02:45:50;-0.50;98.90
3994;DHT22;2011;48.238;13.948;2023-02-28T02:48:21;-0.60;98.90
3994;DHT22;2011;48.238;13.948;2023-02-28T02:50:55;-0.60;98.80
3994;DHT22;2011;48.238;13.948;2023-02-28T02:53:28;-0.60;98.80
3994;DHT22;2011;48.238;13.948;2023-02-28T02:55:58;-0.60;98.70
3994;DHT22;2011;48.238;13.948;2023-02-28T02:58:29;-0.60;98.80
3994;DHT22;2011;48.238;13.948;2023-02-28T03:01:00;-0.60;98.70
3994;DHT22;2011;48.238;13.948;2023-02-28T03:03:29;-0.60;98.70
3994;DHT22;2011;48.238;13.948;2023-02-28T03:06:00;-0.60;98.70
3994;DHT22;2011;48.238;13.948;2023-02-28T03:08:31;-0.60;98.80
3994;DHT22;2011;48.238;13.948;2023-02-28T03:11:02;-0.60;98.70
3994;DHT22;2011;48.238;13.948;2023-02-28T03:16:38;-0.60;98.70
3994;DHT22;2011;48.238;13.948;2023-02-28T03:22:19;-0.70;98.70
3994;DHT22;2011;48.238;13.948;2023-02-28T03:24:52;-0.70;98.60
3994;DHT22;2011;48.238;13.948;2023-02-28T03:27:24;-0.70;98.60
3994;DHT22;2011;48.238;13.948;2023-02-28T03:29:59;-0.70;98.80
3994;DHT22;2011;48.238;13.948;2023-02-28T03:32:32;-0.70;98.60
3994;DHT22;2011;48.238;13.948;2023-02-28T03:35:03;-0.70;98.50
3994;DHT22;2011;48.238;13.948;2023-02-28T03:37:38;-0.70;98.60
3994;DHT22;2011;48.238;13.948;2023-02-28T03:40:09;-0.70;98.70
3994;DHT22;2011;48.238;13.948;2023-02-28T03:42:41;-0.70;98.40
3994;DHT22;2011;48.238;13.948;2023-02-28T03:45:12;-0.70;98.40
3994;DHT22;2011;48.238;13.948;2023-02-28T03:47:42;-0.70;98.50
3994;DHT22;2011;48.238;13.948;2023-02-28T03:50:16;-0.70;98.50
3994;DHT22;2011;48.238;13.948;2023-02-28T03:52:48;-0.70;98.30
3994;DHT22;2011;48.238;13.948;2023-02-28T03:55:17;-0.70;98.60
3994;DHT22;2011;48.238;13.948;2023-02-28T03:57:53;-0.70;98.50
3994;DHT22;2011;48.238;13.948;2023-02-28T04:00:27;-0.70;98.60
3994;DHT22;2011;48.238;13.948;2023-02-28T04:02:55;-0.70;98.60
3994;DHT22;2011;48.238;13.948;2023-02-28T04:05:23;-0.70;98.40
3994;DHT22;2011;48.238;13.948;2023-02-28T04:07:52;-0.70;98.30
3994;DHT22;2011;48.238;13.948;2023-02-28T04:10:20;-0.80;98.10
3994;DHT22;2011;48.238;13.948;2023-02-28T04:12:47;-0.80;98.50
3994;DHT22;2011;48.238;13.948;2023-02-28T04:15:14;-0.80;98.20
3994;DHT22;2011;48.238;13.948;2023-02-28T04:17:41;-0.80;98.30
3994;DHT22;2011;48.238;13.948;2023-02-28T04:20:09;-0.80;98.30
3994;DHT22;2011;48.238;13.948;2023-02-28T04:22:37;-0.80;98.30
3994;DHT22;2011;48.238;13.948;2023-02-28T04:25:06;-0.80;98.00
3994;DHT22;2011;48.238;13.948;2023-02-28T04:27:34;-0.80;98.20
3994;DHT22;2011;48.238;13.948;2023-02-28T04:30:01;-0.80;98.20
3994;DHT22;2011;48.238;13.948;2023-02-28T04:32:28;-0.80;98.20
3994;DHT22;2011;48.238;13.948;2023-02-28T04:34:55;-0.90;98.10
3994;DHT22;2011;48.238;13.948;2023-02-28T04:37:22;-0.90;98.10
3994;DHT22;2011;48.238;13.948;2023-02-28T04:39:53;-0.90;98.00
3994;DHT22;2011;48.238;13.948;2023-02-28T04:42:21;-0.90;98.30
3994;DHT22;2011;48.238;13.948;2023-02-28T04:44:48;-0.90;98.00
3994;DHT22;2011;48.238;13.948;2023-02-28T04:47:15;-0.90;98.20
3994;DHT22;2011;48.238;13.948;2023-02-28T04:49:43;-0.90;98.20
3994;DHT22;2011;48.238;13.948;2023-02-28T04:52:10;-0.90;98.10
3994;DHT22;2011;48.238;13.948;2023-02-28T04:54:38;-0.90;98.10
3994;DHT22;2011;48.238;13.948;2023-02-28T04:57:05;-0.90;97.90
3994;DHT22;2011;48.238;13.948;2023-02-28T04:59:34;-0.90;98.00
3994;DHT22;2011;48.238;13.948;2023-02-28T05:02:01;-1.00;97.90
3994;DHT22;2011;48.238;13.948;2023-02-28T05:04:32;-1.00;97.80
3994;DHT22;2011;48.238;13.948;2023-02-28T05:06:59;-1.00;97.90
3994;DHT22;2011;48.238;13.948;2023-02-28T05:09:26;-0.90;97.90
3994;DHT22;2011;48.238;13.948;2023-02-28T05:11:54;-0.90;98.10
3994;DHT22;2011;48.238;13.948;2023-02-28T05:14:21;-0.90;98.00
3994;DHT22;2011;48.238;13.948;2023-02-28T05:16:49;-0.90;98.10
3994;DHT22;2011;48.238;13.948;2023-02-28T05:19:16;-1.00;97.90
3994;DHT22;2011;48.238;13.948;2023-02-28T05:21:49;-1.00;98.00
3994;DHT22;2011;48.238;13.948;2023-02-28T05:24:17;-1.00;97.80
3994;DHT22;2011;48.238;13.948;2023-02-28T05:26:50;-1.00;97.80
3994;DHT22;2011;48.238;13.948;2023-02-28T05:29:18;-1.00;97.80
3994;DHT22;2011;48.238;13.948;2023-02-28T05:31:45;-1.00;97.90
3994;DHT22;2011;48.238;13.948;2023-02-28T05:34:13;-1.10;97.80
3994;DHT22;2011;48.238;13.948;2023-02-28T05:36:41;-1.10;97.90
3994;DHT22;2011;48.238;13.948;2023-02-28T05:39:09;-1.10;97.90
3994;DHT22;2011;48.238;13.948;2023-02-28T05:41:39;-1.00;97.90
3994;DHT22;2011;48.238;13.948;2023-02-28T05:44:06;-1.10;97.70
3994;DHT22;2011;48.238;13.948;2023-02-28T05:46:33;-1.10;97.70
3994;DHT22;2011;48.238;13.948;2023-02-28T05:49:00;-1.10;97.70
3994;DHT22;2011;48.238;13.948;2023-02-28T05:51:28;-1.10;97.60
3994;DHT22;2011;48.238;13.948;2023-02-28T05:53:59;-1.10;97.60
3994;DHT22;2011;48.238;13.948;2023-02-28T05:56:26;-1.10;97.70
3994;DHT22;2011;48.238;13.948;2023-02-28T05:58:53;-1.00;97.60
3994;DHT22;2011;48.238;13.948;2023-02-28T06:01:30;-1.10;97.40
3994;DHT22;2011;48.238;13.948;2023-02-28T06:03:58;-1.10;97.50
3994;DHT22;2011;48.238;13.948;2023-02-28T06:06:25;-1.00;97.50
3994;DHT22;2011;48.238;13.948;2023-02-28T06:08:53;-1.00;97.50
3994;DHT22;2011;48.238;13.948;2023-02-28T06:11:20;-1.00;97.50
3994;DHT22;2011;48.238;13.948;2023-02-28T06:13:47;-1.00;97.50
3994;DHT22;2011;48.238;13.948;2023-02-28T06:16:14;-1.00;97.40
3994;DHT22;2011;48.238;13.948;2023-02-28T06:18:41;-0.90;97.50
3994;DHT22;2011;48.238;13.948;2023-02-28T06:21:08;-0.90;97.50
3994;DHT22;2011;48.238;13.948;2023-02-28T06:23:35;-0.80;97.60
3994;DHT22;2011;48.238;13.948;2023-02-28T06:26:04;-0.80;97.50
3994;DHT22;2011;48.238;13.948;2023-02-28T06:28:31;-0.70;97.50
3994;DHT22;2011;48.238;13.948;2023-02-28T06:30:58;-0.70;97.40
3994;DHT22;2011;48.238;13.948;2023-02-28T06:33:25;-0.60;97.40
3994;DHT22;2011;48.238;13.948;2023-02-28T06:35:52;-0.60;97.30
3994;DHT22;2011;48.238;13.948;2023-02-28T06:38:19;-0.50;97.40
3994;DHT22;2011;48.238;13.948;2023-02-28T06:40:53;-0.50;97.10
3994;DHT22;2011;48.238;13.948;2023-02-28T06:43:22;-0.50;97.00
3994;DHT22;2011;48.238;13.948;2023-02-28T06:45:49;-0.50;96.60
3994;DHT22;2011;48.238;13.948;2023-02-28T06:48:16;-0.40;96.80
3994;DHT22;2011;48.238;13.948;2023-02-28T06:50:43;-0.40;96.80
3994;DHT22;2011;48.238;13.948;2023-02-28T06:53:10;-0.30;96.70
3994;DHT22;2011;48.238;13.948;2023-02-28T06:55:37;-0.30;96.70
3994;DHT22;2011;48.238;13.948;2023-02-28T06:58:04;-0.20;96.60
3994;DHT22;2011;48.238;13.948;2023-02-28T07:00:42;-0.20;96.40
3994;DHT22;2011;48.238;13.948;2023-02-28T07:03:09;-0.10;96.50
3994;DHT22;2011;48.238;13.948;2023-02-28T07:05:36;-0.10;96.50
3994;DHT22;2011;48.238;13.948;2023-02-28T07:08:04;0.00;96.50
3994;DHT22;2011;48.238;13.948;2023-02-28T07:10:32;0.00;96.20
3994;DHT22;2011;48.238;13.948;2023-02-28T07:12:59;0.10;96.30
3994;DHT22;2011;48.238;13.948;2023-02-28T07:15:27;0.20;96.10
3994;DHT22;2011;48.238;13.948;2023-02-28T07:17:55;0.30;96.30
3994;DHT22;2011;48.238;13.948;2023-02-28T07:20:22;0.40;96.10
3994;DHT22;2011;48.238;13.948;2023-02-28T07:22:50;0.50;96.20
3994;DHT22;2011;48.238;13.948;2023-02-28T07:25:22;0.50;95.80
3994;DHT22;2011;48.238;13.948;2023-02-28T07:27:49;0.60;95.80
3994;DHT22;2011;48.238;13.948;2023-02-28T07:30:16;0.70;95.60
3994;DHT22;2011;48.238;13.948;2023-02-28T07:32:44;0.70;95.30
3994;DHT22;2011;48.238;13.948;2023-02-28T07:35:12;0.80;95.80
3994;DHT22;2011;48.238;13.948;2023-02-28T07:37:40;0.90;95.60
3994;DHT22;2011;48.238;13.948;2023-02-28T07:40:09;0.90;95.30
3994;DHT22;2011;48.238;13.948;2023-02-28T07:42:38;0.90;95.10
3994;DHT22;2011;48.238;13.948;2023-02-28T07:45:07;1.00;95.30
3994;DHT22;2011;48.238;13.948;2023-02-28T07:47:34;1.00;94.90
3994;DHT22;2011;48.238;13.948;2023-02-28T07:50:01;1.10;95.20
3994;DHT22;2011;48.238;13.948;2023-02-28T07:52:29;1.20;95.10
3994;DHT22;2011;48.238;13.948;2023-02-28T07:54:56;1.20;94.90
3994;DHT22;2011;48.238;13.948;2023-02-28T07:57:23;1.30;94.90
3994;DHT22;2011;48.238;13.948;2023-02-28T07:59:51;1.30;94.90
3994;DHT22;2011;48.238;13.948;2023-02-28T08:02:18;1.30;94.40
3994;DHT22;2011;48.238;13.948;2023-02-28T08:04:45;1.40;94.80
3994;DHT22;2011;48.238;13.948;2023-02-28T08:07:13;1.50;94.90
3994;DHT22;2011;48.238;13.948;2023-02-28T08:09:42;1.50;94.40
3994;DHT22;2011;48.238;13.948;2023-02-28T08:12:10;1.60;94.40
3994;DHT22;2011;48.238;13.948;2023-02-28T08:14:37;1.70;94.70
3994;DHT22;2011;48.238;13.948;2023-02-28T08:17:05;1.70;94.30
3994;DHT22;2011;48.238;13.948;2023-02-28T08:19:32;1.80;94.40
3994;DHT22;2011;48.238;13.948;2023-02-28T08:21:59;1.90;94.70
3994;DHT22;2011;48.238;13.948;2023-02-28T08:24:26;2.00;94.90
3994;DHT22;2011;48.238;13.948;2023-02-28T08:26:55;2.00;94.20
3994;DHT22;2011;48.238;13.948;2023-02-28T08:29:22;2.10;94.20
3994;DHT22;2011;48.238;13.948;2023-02-28T08:31:49;2.10;93.90
3994;DHT22;2011;48.238;13.948;2023-02-28T08:34:16;2.20;94.00
3994;DHT22;2011;48.238;13.948;2023-02-28T08:36:44;2.30;94.30
3994;DHT22;2011;48.238;13.948;2023-02-28T08:39:11;2.20;93.60
3994;DHT22;2011;48.238;13.948;2023-02-28T08:41:38;2.30;93.80
3994;DHT22;2011;48.238;13.948;2023-02-28T08:44:07;2.30;93.20
3994;DHT22;2011;48.238;13.948;2023-02-28T08:46:34;2.30;93.50
3994;DHT22;2011;48.238;13.948;2023-02-28T08:49:01;2.40;93.70
3994;DHT22;2011;48.238;13.948;2023-02-28T08:51:29;2.50;94.00
3994;DHT22;2011;48.238;13.948;2023-02-28T08:53:58;2.60;93.80
3994;DHT22;2011;48.238;13.948;2023-02-28T08:56:27;2.60;93.60
3994;DHT22;2011;48.238;13.948;2023-02-28T08:58:56;2.60;93.40
3994;DHT22;2011;48.238;13.948;2023-02-28T09:01:27;2.70;93.70
3994;DHT22;2011;48.238;13.948;2023-02-28T09:03:55;2.80;93.80
3994;DHT22;2011;48.238;13.948;2023-02-28T09:06:24;2.80;93.10
3994;DHT22;2011;48.238;13.948;2023-02-28T09:08:52;2.90;93.40
3994;DHT22;2011;48.238;13.948;2023-02-28T09:11:19;3.00;93.50
3994;DHT22;2011;48.238;13.948;2023-02-28T09:13:46;2.90;93.10
3994;DHT22;2011;48.238;13.948;2023-02-28T09:16:15;2.90;92.90
3994;DHT22;2011;48.238;13.948;2023-02-28T09:18:44;2.80;92.90
3994;DHT22;2011;48.238;13.948;2023-02-28T09:21:13;2.80;92.80
3994;DHT22;2011;48.238;13.948;2023-02-28T09:23:41;2.90;93.40
3994;DHT22;2011;48.238;13.948;2023-02-28T09:26:13;3.10;93.70
3994;DHT22;2011;48.238;13.948;2023-02-28T09:28:40;3.20;93.20
3994;DHT22;2011;48.238;13.948;2023-02-28T09:31:12;3.20;92.90
3994;DHT22;2011;48.238;13.948;2023-02-28T09:33:39;3.30;92.80
3994;DHT22;2011;48.238;13.948;2023-02-28T09:36:08;3.30;92.80
3994;DHT22;2011;48.238;13.948;2023-02-28T09:38:35;3.40;93.00
3994;DHT22;2011;48.238;13.948;2023-02-28T09:41:09;3.40;93.30
3994;DHT22;2011;48.238;13.948;2023-02-28T09:43:41;3.60;93.80
3994;DHT22;2011;48.238;13.948;2023-02-28T09:46:18;3.70;93.50
3994;DHT22;2011;48.238;13.948;2023-02-28T09:48:50;3.80;93.30
3994;DHT22;2011;48.238;13.948;2023-02-28T09:51:31;3.90;93.10
3994;DHT22;2011;48.238;13.948;2023-02-28T09:54:00;3.90;92.50
3994;DHT22;2011;48.238;13.948;2023-02-28T09:56:31;3.90;92.70
3994;DHT22;2011;48.238;13.948;2023-02-28T09:59:02;4.00;92.40
3994;DHT22;2011;48.238;13.948;2023-02-28T10:01:36;4.00;92.60
3994;DHT22;2011;48.238;13.948;2023-02-28T10:04:10;4.10;92.80
3994;DHT22;2011;48.238;13.948;2023-02-28T10:06:45;4.10;92.50
3994;DHT22;2011;48.238;13.948;2023-02-28T10:09:17;4.00;92.00
3994;DHT22;2011;48.238;13.948;2023-02-28T10:11:46;4.00;92.30
3994;DHT22;2011;48.238;13.948;2023-02-28T10:14:16;4.10;92.40
3994;DHT22;2011;48.238;13.948;2023-02-28T10:16:47;4.10;92.90
3994;DHT22;2011;48.238;13.948;2023-02-28T10:19:22;4.30;92.70
3994;DHT22;2011;48.238;13.948;2023-02-28T10:21:56;4.30;92.60
3994;DHT22;2011;48.238;13.948;2023-02-28T10:24:29;4.40;92.80
3994;DHT22;2011;48.238;13.948;2023-02-28T10:27:00;4.50;92.60
3994;DHT22;2011;48.238;13.948;2023-02-28T10:29:28;4.60;92.30
3994;DHT22;2011;48.238;13.948;2023-02-28T10:32:00;4.60;92.10
3994;DHT22;2011;48.238;13.948;2023-02-28T10:34:28;4.70;92.00
3994;DHT22;2011;48.238;13.948;2023-02-28T10:36:58;4.50;91.50
3994;DHT22;2011;48.238;13.948;2023-02-28T10:39:38;4.50;91.70
3994;DHT22;2011;48.238;13.948;2023-02-28T10:42:19;4.40;91.50
3994;DHT22;2011;48.238;13.948;2023-02-28T10:44:46;4.40;91.60
3994;DHT22;2011;48.238;13.948;2023-02-28T10:47:14;4.50;91.70
3994;DHT22;2011;48.238;13.948;2023-02-28T10:49:47;4.60;92.00
3994;DHT22;2011;48.238;13.948;2023-02-28T10:52:33;4.80;93.30
3994;DHT22;2011;48.238;13.948;2023-02-28T10:55:15;4.90;92.20
3994;DHT22;2011;48.238;13.948;2023-02-28T10:57:42;5.10;92.80
3994;DHT22;2011;48.238;13.948;2023-02-28T11:00:15;5.30;92.90
3994;DHT22;2011;48.238;13.948;2023-02-28T11:02:43;5.40;92.60
3994;DHT22;2011;48.238;13.948;2023-02-28T11:05:27;5.50;92.50
3994;DHT22;2011;48.238;13.948;2023-02-28T11:07:59;5.60;92.40
3994;DHT22;2011;48.238;13.948;2023-02-28T11:10:30;5.70;92.20
3994;DHT22;2011;48.238;13.948;2023-02-28T11:13:01;5.70;91.70
3994;DHT22;2011;48.238;13.948;2023-02-28T11:15:30;5.60;91.30
3994;DHT22;2011;48.238;13.948;2023-02-28T11:18:00;5.50;91.30
3994;DHT22;2011;48.238;13.948;2023-02-28T11:20:29;5.60;92.40
3994;DHT22;2011;48.238;13.948;2023-02-28T11:23:00;5.70;92.20
3994;DHT22;2011;48.238;13.948;2023-02-28T11:25:30;5.80;91.90
3994;DHT22;2011;48.238;13.948;2023-02-28T11:27:58;5.90;92.10
3994;DHT22;2011;48.238;13.948;2023-02-28T11:30:34;5.90;92.10
3994;DHT22;2011;48.238;13.948;2023-02-28T11:33:01;6.00;91.80
3994;DHT22;2011;48.238;13.948;2023-02-28T11:35:45;6.10;92.20
3994;DHT22;2011;48.238;13.948;2023-02-28T11:38:16;6.20;92.00
3994;DHT22;2011;48.238;13.948;2023-02-28T11:40:46;6.30;91.70
3994;DHT22;2011;48.238;13.948;2023-02-28T11:43:29;6.30;91.20
3994;DHT22;2011;48.238;13.948;2023-02-28T11:46:16;6.40;91.20
3994;DHT22;2011;48.238;13.948;2023-02-28T11:48:54;6.40;91.40
3994;DHT22;2011;48.238;13.948;2023-02-28T11:51:26;6.40;91.30
3994;DHT22;2011;48.238;13.948;2023-02-28T11:54:17;6.40;91.40
3994;DHT22;2011;48.238;13.948;2023-02-28T11:56:51;6.60;91.00
3994;DHT22;2011;48.238;13.948;2023-02-28T11:59:35;6.60;91.30
3994;DHT22;2011;48.238;13.948;2023-02-28T12:02:23;6.70;91.20
3994;DHT22;2011;48.238;13.948;2023-02-28T12:04:57;6.70;90.70
3994;DHT22;2011;48.238;13.948;2023-02-28T12:07:34;6.70;90.70
3994;DHT22;2011;48.238;13.948;2023-02-28T12:10:13;6.70;90.70
3994;DHT22;2011;48.238;13.948;2023-02-28T12:12:55;6.80;90.80
3994;DHT22;2011;48.238;13.948;2023-02-28T12:15:37;6.90;90.90
3994;DHT22;2011;48.238;13.948;2023-02-28T12:18:23;6.90;90.70
3994;DHT22;2011;48.238;13.948;2023-02-28T12:21:01;6.90;90.50
3994;DHT22;2011;48.238;13.948;2023-02-28T12:24:03;6.90;90.30
3994;DHT22;2011;48.238;13.948;2023-02-28T12:26:38;7.00;90.70
3994;DHT22;2011;48.238;13.948;2023-02-28T12:29:12;7.10;91.20
3994;DHT22;2011;48.238;13.948;2023-02-28T12:31:46;7.10;89.90
3994;DHT22;2011;48.238;13.948;2023-02-28T12:34:18;7.10;90.00
3994;DHT22;2011;48.238;13.948;2023-02-28T12:36:47;7.10;90.70
3994;DHT22;2011;48.238;13.948;2023-02-28T12:39:18;7.20;90.90
3994;DHT22;2011;48.238;13.948;2023-02-28T12:41:51;7.20;91.00
3994;DHT22;2011;48.238;13.948;2023-02-28T12:44:26;7.20;90.50
3994;DHT22;2011;48.238;13.948;2023-02-28T12:46:56;7.30;90.90
3994;DHT22;2011;48.238;13.948;2023-02-28T12:49:29;7.40;90.80
3994;DHT22;2011;48.238;13.948;2023-02-28T12:51:58;7.40;90.50
3994;DHT22;2011;48.238;13.948;2023-02-28T12:54:31;7.50;90.60
3994;DHT22;2011;48.238;13.948;2023-02-28T12:57:09;7.50;90.10
3994;DHT22;2011;48.238;13.948;2023-02-28T12:59:42;7.40;89.50
3994;DHT22;2011;48.238;13.948;2023-02-28T13:02:44;7.40;90.00
3994;DHT22;2011;48.238;13.948;2023-02-28T13:08:48;7.50;89.30
3994;DHT22;2011;48.238;13.948;2023-02-28T13:11:25;7.50;88.30
3994;DHT22;2011;48.238;13.948;2023-02-28T13:14:01;7.60;89.80
3994;DHT22;2011;48.238;13.948;2023-02-28T13:16:54;7.60;89.30
3994;DHT22;2011;48.238;13.948;2023-02-28T13:19:24;7.60;88.80
3994;DHT22;2011;48.238;13.948;2023-02-28T13:21:52;7.60;90.00
3994;DHT22;2011;48.238;13.948;2023-02-28T13:24:46;7.60;88.80
3994;DHT22;2011;48.238;13.948;2023-02-28T13:27:35;7.60;88.70
3994;DHT22;2011;48.238;13.948;2023-02-28T13:33:25;7.70;90.10
3994;DHT22;2011;48.238;13.948;2023-02-28T13:36:11;7.90;89.30
3994;DHT22;2011;48.238;13.948;2023-02-28T13:38:49;7.80;88.30
3994;DHT22;2011;48.238;13.948;2023-02-28T13:41:41;7.80;88.70
3994;DHT22;2011;48.238;13.948;2023-02-28T13:44:09;7.90;88.90
3994;DHT22;2011;48.238;13.948;2023-02-28T13:49:44;8.00;88.60
3994;DHT22;2011;48.238;13.948;2023-02-28T13:52:17;8.00;89.20
3994;DHT22;2011;48.238;13.948;2023-02-28T13:55:02;8.20;89.60
3994;DHT22;2011;48.238;13.948;2023-02-28T13:57:49;8.20;88.10
3994;DHT22;2011;48.238;13.948;2023-02-28T14:00:28;8.20;89.00
3994;DHT22;2011;48.238;13.948;2023-02-28T14:03:11;8.20;88.60
3994;DHT22;2011;48.238;13.948;2023-02-28T14:05:41;8.30;88.50
3994;DHT22;2011;48.238;13.948;2023-02-28T14:08:13;8.30;89.60
3994;DHT22;2011;48.238;13.948;2023-02-28T14:10:44;8.40;88.60
3994;DHT22;2011;48.238;13.948;2023-02-28T14:15:59;8.40;88.00
3994;DHT22;2011;48.238;13.948;2023-02-28T14:18:30;8.60;89.40
3994;DHT22;2011;48.238;13.948;2023-02-28T14:21:13;8.60;89.20
3994;DHT22;2011;48.238;13.948;2023-02-28T14:24:06;8.70;87.20
3994;DHT22;2011;48.238;13.948;2023-02-28T14:26:56;8.60;87.00
3994;DHT22;2011;48.238;13.948;2023-02-28T14:29:51;8.60;86.00
3994;DHT22;2011;48.238;13.948;2023-02-28T14:32:25;8.60;86.50
3994;DHT22;2011;48.238;13.948;2023-02-28T14:35:01;8.60;86.60
3994;DHT22;2011;48.238;13.948;2023-02-28T14:37:34;8.70;86.50
3994;DHT22;2011;48.238;13.948;2023-02-28T14:40:12;8.70;86.60
3994;DHT22;2011;48.238;13.948;2023-02-28T14:42:47;8.80;87.30
3994;DHT22;2011;48.238;13.948;2023-02-28T14:45:19;8.90;86.90
3994;DHT22;2011;48.238;13.948;2023-02-28T14:47:47;8.90;85.80
3994;DHT22;2011;48.238;13.948;2023-02-28T14:50:20;8.70;85.60
3994;DHT22;2011;48.238;13.948;2023-02-28T14:52:52;8.70;87.20
3994;DHT22;2011;48.238;13.948;2023-02-28T14:55:23;8.70;87.20
3994;DHT22;2011;48.238;13.948;2023-02-28T14:57:52;8.70;85.90
3994;DHT22;2011;48.238;13.948;2023-02-28T15:00:23;8.60;85.70
3994;DHT22;2011;48.238;13.948;2023-02-28T15:02:50;8.50;85.20
3994;DHT22;2011;48.238;13.948;2023-02-28T15:05:29;8.20;85.60
3994;DHT22;2011;48.238;13.948;2023-02-28T15:08:11;8.00;86.00
3994;DHT22;2011;48.238;13.948;2023-02-28T15:10:40;7.80;86.30
3994;DHT22;2011;48.238;13.948;2023-02-28T15:13:12;7.40;85.70
3994;DHT22;2011;48.238;13.948;2023-02-28T15:15:45;7.10;87.10
3994;DHT22;2011;48.238;13.948;2023-02-28T15:18:25;7.00;87.80
3994;DHT22;2011;48.238;13.948;2023-02-28T15:20:53;6.90;88.10
3994;DHT22;2011;48.238;13.948;2023-02-28T15:23:23;6.50;86.90
3994;DHT22;2011;48.238;13.948;2023-02-28T15:25:51;6.40;88.40
3994;DHT22;2011;48.238;13.948;2023-02-28T15:28:20;6.30;89.20
3994;DHT22;2011;48.238;13.948;2023-02-28T15:30:54;6.20;89.30
3994;DHT22;2011;48.238;13.948;2023-02-28T15:33:23;6.10;89.40
3994;DHT22;2011;48.238;13.948;2023-02-28T15:35:51;6.00;89.00
3994;DHT22;2011;48.238;13.948;2023-02-28T15:38:34;5.80;89.40
3994;DHT22;2011;48.238;13.948;2023-02-28T15:41:01;5.70;89.90
3994;DHT22;2011;48.238;13.948;2023-02-28T15:43:34;5.70;90.20
3994;DHT22;2011;48.238;13.948;2023-02-28T15:46:03;5.60;90.40
3994;DHT22;2011;48.238;13.948;2023-02-28T15:48:34;5.60;90.20
3994;DHT22;2011;48.238;13.948;2023-02-28T15:51:06;5.60;90.50
3994;DHT22;2011;48.238;13.948;2023-02-28T15:53:37;5.50;90.50
3994;DHT22;2011;48.238;13.948;2023-02-28T15:56:21;5.50;90.40
3994;DHT22;2011;48.238;13.948;2023-02-28T15:58:49;5.60;90.80
3994;DHT22;2011;48.238;13.948;2023-02-28T16:01:21;5.40;90.80
3994;DHT22;2011;48.238;13.948;2023-02-28T16:03:52;5.40;90.80
3994;DHT22;2011;48.238;13.948;2023-02-28T16:06:38;5.30;91.10
3994;DHT22;2011;48.238;13.948;2023-02-28T16:09:10;5.30;91.40
3994;DHT22;2011;48.238;13.948;2023-02-28T16:11:40;5.20;91.30
3994;DHT22;2011;48.238;13.948;2023-02-28T16:14:15;5.20;91.50
3994;DHT22;2011;48.238;13.948;2023-02-28T16:16:43;5.10;91.30
3994;DHT22;2011;48.238;13.948;2023-02-28T16:19:10;5.00;91.40
3994;DHT22;2011;48.238;13.948;2023-02-28T16:21:37;5.00;91.50
3994;DHT22;2011;48.238;13.948;2023-02-28T16:24:05;5.00;91.50
3994;DHT22;2011;48.238;13.948;2023-02-28T16:26:33;5.00;91.60
3994;DHT22;2011;48.238;13.948;2023-02-28T16:29:03;4.90;91.70
3994;DHT22;2011;48.238;13.948;2023-02-28T16:31:32;4.90;91.90
3994;DHT22;2011;48.238;13.948;2023-02-28T16:34:02;4.90;92.00
3994;DHT22;2011;48.238;13.948;2023-02-28T16:36:29;4.90;92.10
3994;DHT22;2011;48.238;13.948;2023-02-28T16:38:56;4.80;92.00
3994;DHT22;2011;48.238;13.948;2023-02-28T16:41:26;4.80;92.20
3994;DHT22;2011;48.238;13.948;2023-02-28T16:43:57;4.80;92.30
3994;DHT22;2011;48.238;13.948;2023-02-28T16:46:28;4.80;92.50
3994;DHT22;2011;48.238;13.948;2023-02-28T16:48:57;4.80;92.40